sensor_id;sensor_type;location;lat;lon;timestamp;temperature;humidity
13091;DHT22;6611;52.604;13.438;2023-03-31T00:02:21;10.69;85.31
13091;DHT22;6611;52.604;13.438;2023-03-31T00:07:23;10.66;85.80
13091;DHT22;6611;52.604;13.438;2023-03-31T00:12:25;10.65;85.69
13091;DHT22;6611;52.604;13.438;2023-03-31T00:17:28;10.63;86.33
13091;DHT22;6611;52.604;13.438;2023-03-31T00:22:32;10.66;85.18
13091;DHT22;6611;52.604;13.438;2023-03-31T00:27:34;10.69;85.27
13091;DHT22;6611;52.604;13.438;2023-03-31T00:32:37;10.63;85.12
13091;DHT22;6611;52.604;13.438;2023-03-31T00:37:38;10.66;85.28
13091;DHT22;6611;52.604;13.438;2023-03-31T00:42:43;10.68;84.21
13091;DHT22;6611;52.604;13.438;2023-03-31T00:47:49;10.68;84.76
13091;DHT22;6611;52.604;13.438;2023-03-31T00:52:55;10.63;85.34
13091;DHT22;6611;52.604;13.438;2023-03-31T00:57:58;10.66;85.33
13091;DHT22;6611;52.604;13.438;2023-03-31T01:03:06;10.62;84.96
13091;DHT22;6611;52.604;13.438;2023-03-31T01:08:09;10.75;83.70
13091;DHT22;6611;52.604;13.438;2023-03-31T01:13:14;10.65;84.21
13091;DHT22;6611;52.604;13.438;2023-03-31T01:18:17;10.62;84.24
13091;DHT22;6611;52.604;13.438;2023-03-31T01:28:55;10.51;84.12
13091;DHT22;6611;52.604;13.438;2023-03-31T01:34:30;10.41;84.19
13091;DHT22;6611;52.604;13.438;2023-03-31T01:45:43;10.51;83.53
13091;DHT22;6611;52.604;13.438;2023-03-31T01:50:52;10.31;84.72
13091;DHT22;6611;52.604;13.438;2023-03-31T01:56:01;10.25;84.68
13091;DHT22;6611;52.604;13.438;2023-03-31T02:01:13;10.21;84.56
13091;DHT22;6611;52.604;13.438;2023-03-31T02:06:20;10.24;83.75
13091;DHT22;6611;52.604;13.438;2023-03-31T02:11:24;10.35;83.38
13091;DHT22;6611;52.604;13.438;2023-03-31T02:16:29;10.31;84.07
13091;DHT22;6611;52.604;13.438;2023-03-31T02:21:33;10.30;84.41
13091;DHT22;6611;52.604;13.438;2023-03-31T02:26:41;10.25;84.37
13091;DHT22;6611;52.604;13.438;2023-03-31T02:31:49;10.24;84.08
13091;DHT22;6611;52.604;13.438;2023-03-31T02:36:53;10.27;83.85
13091;DHT22;6611;52.604;13.438;2023-03-31T02:41:55;10.30;84.12
13091;DHT22;6611;52.604;13.438;2023-03-31T02:46:59;10.31;84.19
13091;DHT22;6611;52.604;13.438;2023-03-31T02:57:52;10.24;84.91
13091;DHT22;6611;52.604;13.438;2023-03-31T03:03:09;10.28;84.37
13091;DHT22;6611;52.604;13.438;2023-03-31T03:08:20;10.30;84.69
13091;DHT22;6611;52.604;13.438;2023-03-31T03:13:29;10.40;83.90
13091;DHT22;6611;52.604;13.438;2023-03-31T03:18:36;10.32;85.33
13091;DHT22;6611;52.604;13.438;2023-03-31T03:23:38;10.34;84.55
13091;DHT22;6611;52.604;13.438;2023-03-31T03:28:40;10.40;84.35
13091;DHT22;6611;52.604;13.438;2023-03-31T03:33:43;10.35;85.16
13091;DHT22;6611;52.604;13.438;2023-03-31T03:38:44;10.37;84.40
13091;DHT22;6611;52.604;13.438;2023-03-31T03:43:46;10.41;84.12
13091;DHT22;6611;52.604;13.438;2023-03-31T03:48:49;10.42;84.16
13091;DHT22;6611;52.604;13.438;2023-03-31T03:53:51;10.40;84.42
13091;DHT22;6611;52.604;13.438;2023-03-31T03:58:52;10.40;84.63
13091;DHT22;6611;52.604;13.438;2023-03-31T04:03:55;10.34;85.03
13091;DHT22;6611;52.604;13.438;2023-03-31T04:08:57;10.44;84.37
13091;DHT22;6611;52.604;13.438;2023-03-31T04:13:59;10.32;85.51
13091;DHT22;6611;52.604;13.438;2023-03-31T04:19:02;10.31;85.38
13091;DHT22;6611;52.604;13.438;2023-03-31T04:24:05;10.32;85.32
13091;DHT22;6611;52.604;13.438;2023-03-31T04:29:07;10.30;85.53
13091;DHT22;6611;52.604;13.438;2023-03-31T04:34:13;10.31;85.44
13091;DHT22;6611;52.604;13.438;2023-03-31T04:39:16;10.28;85.80
13091;DHT22;6611;52.604;13.438;2023-03-31T04:44:23;10.28;85.17
13091;DHT22;6611;52.604;13.438;2023-03-31T04:49:26;10.42;84.96
13091;DHT22;6611;52.604;13.438;2023-03-31T04:54:28;10.51;84.57
13091;DHT22;6611;52.604;13.438;2023-03-31T04:59:30;10.49;84.57
13091;DHT22;6611;52.604;13.438;2023-03-31T05:04:33;10.49;85.26
13091;DHT22;6611;52.604;13.438;2023-03-31T05:09:35;10.46;85.62
13091;DHT22;6611;52.604;13.438;2023-03-31T05:14:36;10.49;85.38
13091;DHT22;6611;52.604;13.438;2023-03-31T05:19:39;10.51;85.33
13091;DHT22;6611;52.604;13.438;2023-03-31T05:24:41;10.55;85.21
13091;DHT22;6611;52.604;13.438;2023-03-31T05:29:43;10.62;84.83
13091;DHT22;6611;52.604;13.438;2023-03-31T05:34:46;10.60;84.20
13091;DHT22;6611;52.604;13.438;2023-03-31T05:39:49;10.56;84.63
13091;DHT22;6611;52.604;13.438;2023-03-31T05:44:50;10.80;83.97
13091;DHT22;6611;52.604;13.438;2023-03-31T05:49:54;11.07;82.37
13091;DHT22;6611;52.604;13.438;2023-03-31T05:54:55;11.25;81.70
13091;DHT22;6611;52.604;13.438;2023-03-31T05:59:57;11.28;81.35
13091;DHT22;6611;52.604;13.438;2023-03-31T06:05:00;11.43;81.04
13091;DHT22;6611;52.604;13.438;2023-03-31T06:10:02;11.69;79.85
13091;DHT22;6611;52.604;13.438;2023-03-31T06:15:05;11.61;80.79
13091;DHT22;6611;52.604;13.438;2023-03-31T06:20:09;11.46;81.18
13091;DHT22;6611;52.604;13.438;2023-03-31T06:25:10;11.49;80.95
13091;DHT22;6611;52.604;13.438;2023-03-31T06:30:12;11.46;81.82
13091;DHT22;6611;52.604;13.438;2023-03-31T06:35:15;11.46;80.77
13091;DHT22;6611;52.604;13.438;2023-03-31T06:40:17;11.54;80.96
13091;DHT22;6611;52.604;13.438;2023-03-31T06:45:19;11.58;81.04
13091;DHT22;6611;52.604;13.438;2023-03-31T06:50:22;11.66;80.72
13091;DHT22;6611;52.604;13.438;2023-03-31T06:55:24;11.94;80.00
13091;DHT22;6611;52.604;13.438;2023-03-31T07:00:26;12.02;79.11
13091;DHT22;6611;52.604;13.438;2023-03-31T07:05:29;12.11;80.22
13091;DHT22;6611;52.604;13.438;2023-03-31T07:10:31;12.50;79.78
13091;DHT22;6611;52.604;13.438;2023-03-31T07:15:33;13.29;73.93
13091;DHT22;6611;52.604;13.438;2023-03-31T07:20:36;13.88;73.69
13091;DHT22;6611;52.604;13.438;2023-03-31T07:25:38;13.90;72.18
13091;DHT22;6611;52.604;13.438;2023-03-31T07:30:39;13.88;73.32
13091;DHT22;6611;52.604;13.438;2023-03-31T07:35:43;14.18;72.43
13091;DHT22;6611;52.604;13.438;2023-03-31T07:40:44;14.18;72.87
13091;DHT22;6611;52.604;13.438;2023-03-31T07:45:46;14.29;71.73
13091;DHT22;6611;52.604;13.438;2023-03-31T07:50:49;14.36;71.59
13091;DHT22;6611;52.604;13.438;2023-03-31T07:55:51;14.28;71.14
13091;DHT22;6611;52.604;13.438;2023-03-31T08:00:53;14.69;70.36
13091;DHT22;6611;52.604;13.438;2023-03-31T08:05:56;14.74;68.86
13091;DHT22;6611;52.604;13.438;2023-03-31T08:10:58;14.47;69.40
13091;DHT22;6611;52.604;13.438;2023-03-31T08:15:59;14.42;70.07
13091;DHT22;6611;52.604;13.438;2023-03-31T08:21:03;14.25;71.00
13091;DHT22;6611;52.604;13.438;2023-03-31T08:26:10;14.12;72.68
13091;DHT22;6611;52.604;13.438;2023-03-31T08:31:12;14.22;71.49
13091;DHT22;6611;52.604;13.438;2023-03-31T08:36:16;14.33;70.95
13091;DHT22;6611;52.604;13.438;2023-03-31T08:41:29;14.49;71.65
13091;DHT22;6611;52.604;13.438;2023-03-31T08:46:32;14.76;70.52
13091;DHT22;6611;52.604;13.438;2023-03-31T08:51:40;15.11;68.84
13091;DHT22;6611;52.604;13.438;2023-03-31T08:56:45;15.52;68.05
13091;DHT22;6611;52.604;13.438;2023-03-31T09:01:49;15.60;66.69
13091;DHT22;6611;52.604;13.438;2023-03-31T09:07:02;16.06;65.14
13091;DHT22;6611;52.604;13.438;2023-03-31T09:12:11;15.90;65.97
13091;DHT22;6611;52.604;13.438;2023-03-31T09:17:18;15.46;66.73
13091;DHT22;6611;52.604;13.438;2023-03-31T09:22:25;15.26;67.19
13091;DHT22;6611;52.604;13.438;2023-03-31T09:27:30;15.14;69.34
13091;DHT22;6611;52.604;13.438;2023-03-31T09:32:36;15.26;68.80
13091;DHT22;6611;52.604;13.438;2023-03-31T09:37:40;15.50;67.53
13091;DHT22;6611;52.604;13.438;2023-03-31T09:42:41;15.31;67.91
13091;DHT22;6611;52.604;13.438;2023-03-31T09:47:45;15.32;66.88
13091;DHT22;6611;52.604;13.438;2023-03-31T09:52:51;15.12;68.53
13091;DHT22;6611;52.604;13.438;2023-03-31T09:57:53;15.14;68.82
13091;DHT22;6611;52.604;13.438;2023-03-31T10:02:55;15.22;68.00
13091;DHT22;6611;52.604;13.438;2023-03-31T10:08:29;14.99;67.64
13091;DHT22;6611;52.604;13.438;2023-03-31T10:13:36;14.73;68.06
13091;DHT22;6611;52.604;13.438;2023-03-31T10:18:42;14.47;68.52
13091;DHT22;6611;52.604;13.438;2023-03-31T10:23:47;14.29;70.64
13091;DHT22;6611;52.604;13.438;2023-03-31T10:28:50;14.25;70.90
13091;DHT22;6611;52.604;13.438;2023-03-31T10:33:52;14.29;71.96
13091;DHT22;6611;52.604;13.438;2023-03-31T10:38:56;14.25;72.17
13091;DHT22;6611;52.604;13.438;2023-03-31T10:43:59;14.12;75.65
13091;DHT22;6611;52.604;13.438;2023-03-31T10:49:13;13.80;78.68
13091;DHT22;6611;52.604;13.438;2023-03-31T10:54:17;13.87;78.35
13091;DHT22;6611;52.604;13.438;2023-03-31T10:59:40;14.18;77.92
13091;DHT22;6611;52.604;13.438;2023-03-31T11:04:51;14.50;74.40
13091;DHT22;6611;52.604;13.438;2023-03-31T11:10:16;14.57;76.71
13091;DHT22;6611;52.604;13.438;2023-03-31T11:15:24;14.76;73.35
13091;DHT22;6611;52.604;13.438;2023-03-31T11:20:35;14.66;71.16
13091;DHT22;6611;52.604;13.438;2023-03-31T11:25:48;14.81;74.39
13091;DHT22;6611;52.604;13.438;2023-03-31T11:30:58;15.04;74.36
13091;DHT22;6611;52.604;13.438;2023-03-31T11:36:15;15.31;70.59
13091;DHT22;6611;52.604;13.438;2023-03-31T11:41:27;14.95;72.59
13091;DHT22;6611;52.604;13.438;2023-03-31T11:46:38;15.12;70.17
13091;DHT22;6611;52.604;13.438;2023-03-31T11:51:42;15.31;71.96
13091;DHT22;6611;52.604;13.438;2023-03-31T11:56:48;15.50;69.22
13091;DHT22;6611;52.604;13.438;2023-03-31T12:01:54;15.83;66.14
13091;DHT22;6611;52.604;13.438;2023-03-31T12:07:02;15.50;66.82
13091;DHT22;6611;52.604;13.438;2023-03-31T12:12:12;15.71;67.43
13091;DHT22;6611;52.604;13.438;2023-03-31T12:17:17;16.01;66.36
13091;DHT22;6611;52.604;13.438;2023-03-31T12:22:23;15.73;67.28
13091;DHT22;6611;52.604;13.438;2023-03-31T12:27:31;15.40;68.72
13091;DHT22;6611;52.604;13.438;2023-03-31T12:32:37;15.08;70.13
13091;DHT22;6611;52.604;13.438;2023-03-31T12:38:02;14.28;77.72
13091;DHT22;6611;52.604;13.438;2023-03-31T12:43:24;13.65;80.68
13091;DHT22;6611;52.604;13.438;2023-03-31T12:48:46;13.67;83.12
13091;DHT22;6611;52.604;13.438;2023-03-31T12:54:01;14.07;81.38
13091;DHT22;6611;52.604;13.438;2023-03-31T12:59:31;14.05;80.96
13091;DHT22;6611;52.604;13.438;2023-03-31T13:04:33;13.84;81.23
13091;DHT22;6611;52.604;13.438;2023-03-31T13:09:57;13.67;82.90
13091;DHT22;6611;52.604;13.438;2023-03-31T13:15:03;13.32;81.35
13091;DHT22;6611;52.604;13.438;2023-03-31T13:20:16;12.81;82.91
13091;DHT22;6611;52.604;13.438;2023-03-31T13:30:55;12.11;84.87
13091;DHT22;6611;52.604;13.438;2023-03-31T13:36:27;12.10;85.78
13091;DHT22;6611;52.604;13.438;2023-03-31T13:41:39;12.16;85.47
13091;DHT22;6611;52.604;13.438;2023-03-31T13:47:09;12.08;86.13
13091;DHT22;6611;52.604;13.438;2023-03-31T13:52:28;12.02;85.81
13091;DHT22;6611;52.604;13.438;2023-03-31T13:58:06;12.00;86.84
13091;DHT22;6611;52.604;13.438;2023-03-31T14:03:26;12.07;85.54
13091;DHT22;6611;52.604;13.438;2023-03-31T14:08:44;12.07;86.05
13091;DHT22;6611;52.604;13.438;2023-03-31T14:14:01;11.87;86.48
13091;DHT22;6611;52.604;13.438;2023-03-31T14:19:37;11.76;87.46
13091;DHT22;6611;52.604;13.438;2023-03-31T14:24:49;11.76;86.37
13091;DHT22;6611;52.604;13.438;2023-03-31T14:29:57;11.58;85.81
13091;DHT22;6611;52.604;13.438;2023-03-31T14:35:16;11.43;86.42
13091;DHT22;6611;52.604;13.438;2023-03-31T14:40:23;11.52;86.10
13091;DHT22;6611;52.604;13.438;2023-03-31T14:45:26;11.58;85.47
13091;DHT22;6611;52.604;13.438;2023-03-31T14:50:34;11.43;84.76
13091;DHT22;6611;52.604;13.438;2023-03-31T14:55:36;11.22;85.89
13091;DHT22;6611;52.604;13.438;2023-03-31T15:00:38;11.27;86.03
13091;DHT22;6611;52.604;13.438;2023-03-31T15:05:42;11.49;85.96
13091;DHT22;6611;52.604;13.438;2023-03-31T15:10:48;11.80;84.01
13091;DHT22;6611;52.604;13.438;2023-03-31T15:15:51;11.76;83.98
13091;DHT22;6611;52.604;13.438;2023-03-31T15:20:54;11.62;84.56
13091;DHT22;6611;52.604;13.438;2023-03-31T15:25:57;11.59;84.71
13091;DHT22;6611;52.604;13.438;2023-03-31T15:31:00;11.46;86.27
13091;DHT22;6611;52.604;13.438;2023-03-31T15:36:03;11.38;86.98
13091;DHT22;6611;52.604;13.438;2023-03-31T15:41:11;11.58;84.98
13091;DHT22;6611;52.604;13.438;2023-03-31T15:46:18;11.74;84.67
13091;DHT22;6611;52.604;13.438;2023-03-31T15:51:27;11.61;84.79
13091;DHT22;6611;52.604;13.438;2023-03-31T15:56:33;11.49;84.82
13091;DHT22;6611;52.604;13.438;2023-03-31T16:01:43;11.27;86.11
13091;DHT22;6611;52.604;13.438;2023-03-31T16:06:50;11.21;86.06
13091;DHT22;6611;52.604;13.438;2023-03-31T16:11:55;11.20;86.16
13091;DHT22;6611;52.604;13.438;2023-03-31T16:17:01;11.22;86.24
13091;DHT22;6611;52.604;13.438;2023-03-31T16:22:06;11.08;86.92
13091;DHT22;6611;52.604;13.438;2023-03-31T16:27:13;11.04;86.88
13091;DHT22;6611;52.604;13.438;2023-03-31T16:32:17;11.13;86.60
13091;DHT22;6611;52.604;13.438;2023-03-31T16:37:21;11.11;86.22
13091;DHT22;6611;52.604;13.438;2023-03-31T16:42:24;11.00;87.29
13091;DHT22;6611;52.604;13.438;2023-03-31T16:47:26;10.92;87.98
13091;DHT22;6611;52.604;13.438;2023-03-31T16:52:29;10.84;88.38
13091;DHT22;6611;52.604;13.438;2023-03-31T16:57:31;10.86;88.30
13091;DHT22;6611;52.604;13.438;2023-03-31T17:02:33;10.96;87.75
13091;DHT22;6611;52.604;13.438;2023-03-31T17:07:36;11.00;87.33
13091;DHT22;6611;52.604;13.438;2023-03-31T17:12:39;10.99;87.59
13091;DHT22;6611;52.604;13.438;2023-03-31T17:17:41;10.90;87.50
13091;DHT22;6611;52.604;13.438;2023-03-31T17:22:44;10.77;87.87
13091;DHT22;6611;52.604;13.438;2023-03-31T17:27:47;10.65;88.30
13091;DHT22;6611;52.604;13.438;2023-03-31T17:32:48;10.62;88.47
13091;DHT22;6611;52.604;13.438;2023-03-31T17:37:51;10.58;88.67
13091;DHT22;6611;52.604;13.438;2023-03-31T17:42:54;10.56;88.96
13091;DHT22;6611;52.604;13.438;2023-03-31T17:47:56;10.63;88.34
13091;DHT22;6611;52.604;13.438;2023-03-31T17:52:59;10.59;88.63
13091;DHT22;6611;52.604;13.438;2023-03-31T17:58:00;10.59;88.59
13091;DHT22;6611;52.604;13.438;2023-03-31T18:03:02;10.51;88.90
13091;DHT22;6611;52.604;13.438;2023-03-31T18:08:05;10.56;88.89
13091;DHT22;6611;52.604;13.438;2023-03-31T18:13:07;10.62;88.49
13091;DHT22;6611;52.604;13.438;2023-03-31T18:18:09;10.52;88.84
13091;DHT22;6611;52.604;13.438;2023-03-31T18:23:12;10.48;89.46
13091;DHT22;6611;52.604;13.438;2023-03-31T18:28:15;10.49;88.95
13091;DHT22;6611;52.604;13.438;2023-03-31T18:33:17;10.45;88.91
13091;DHT22;6611;52.604;13.438;2023-03-31T18:38:20;10.45;89.52
13091;DHT22;6611;52.604;13.438;2023-03-31T18:43:23;10.40;89.68
13091;DHT22;6611;52.604;13.438;2023-03-31T18:48:25;10.42;89.66
13091;DHT22;6611;52.604;13.438;2023-03-31T18:53:29;10.37;89.86
13091;DHT22;6611;52.604;13.438;2023-03-31T18:58:31;10.32;89.87
13091;DHT22;6611;52.604;13.438;2023-03-31T19:03:32;10.27;90.35
13091;DHT22;6611;52.604;13.438;2023-03-31T19:08:36;10.22;90.59
13091;DHT22;6611;52.604;13.438;2023-03-31T19:13:38;10.17;91.13
13091;DHT22;6611;52.604;13.438;2023-03-31T19:18:41;10.20;90.89
13091;DHT22;6611;52.604;13.438;2023-03-31T19:23:44;10.22;90.84
13091;DHT22;6611;52.604;13.438;2023-03-31T19:28:46;10.22;90.95
13091;DHT22;6611;52.604;13.438;2023-03-31T19:33:48;10.24;90.83
13091;DHT22;6611;52.604;13.438;2023-03-31T19:38:51;10.25;90.91
13091;DHT22;6611;52.604;13.438;2023-03-31T19:43:53;10.24;91.09
13091;DHT22;6611;52.604;13.438;2023-03-31T19:48:54;10.25;90.89
13091;DHT22;6611;52.604;13.438;2023-03-31T19:53:57;10.27;90.96
13091;DHT22;6611;52.604;13.438;2023-03-31T19:58:59;10.22;91.14
13091;DHT22;6611;52.604;13.438;2023-03-31T20:04:02;10.20;91.23
13091;DHT22;6611;52.604;13.438;2023-03-31T20:09:05;10.22;91.05
13091;DHT22;6611;52.604;13.438;2023-03-31T20:14:07;10.21;91.03
13091;DHT22;6611;52.604;13.438;2023-03-31T20:19:10;10.20;91.25
13091;DHT22;6611;52.604;13.438;2023-03-31T20:24:15;10.22;90.89
13091;DHT22;6611;52.604;13.438;2023-03-31T20:29:18;10.24;91.04
13091;DHT22;6611;52.604;13.438;2023-03-31T20:34:20;10.24;91.26
13091;DHT22;6611;52.604;13.438;2023-03-31T20:39:24;10.30;90.93
13091;DHT22;6611;52.604;13.438;2023-03-31T20:44:26;10.37;90.75
13091;DHT22;6611;52.604;13.438;2023-03-31T20:49:28;10.37;91.01
13091;DHT22;6611;52.604;13.438;2023-03-31T20:54:31;10.38;91.06
13091;DHT22;6611;52.604;13.438;2023-03-31T20:59:32;10.40;90.86
13091;DHT22;6611;52.604;13.438;2023-03-31T21:04:34;10.37;90.76
13091;DHT22;6611;52.604;13.438;2023-03-31T21:09:37;10.37;91.01
13091;DHT22;6611;52.604;13.438;2023-03-31T21:14:39;10.35;91.14
13091;DHT22;6611;52.604;13.438;2023-03-31T21:19:40;10.34;91.30
13091;DHT22;6611;52.604;13.438;2023-03-31T21:24:43;10.32;91.34
13091;DHT22;6611;52.604;13.438;2023-03-31T21:29:45;10.35;91.12
13091;DHT22;6611;52.604;13.438;2023-03-31T21:34:47;10.31;91.35
13091;DHT22;6611;52.604;13.438;2023-03-31T21:39:50;10.35;91.21
13091;DHT22;6611;52.604;13.438;2023-03-31T21:44:51;10.38;91.13
13091;DHT22;6611;52.604;13.438;2023-03-31T21:49:58;10.31;91.41
13091;DHT22;6611;52.604;13.438;2023-03-31T21:55:01;10.51;90.42
13091;DHT22;6611;52.604;13.438;2023-03-31T22:00:03;10.51;90.21
13091;DHT22;6611;52.604;13.438;2023-03-31T22:05:05;10.42;90.62
13091;DHT22;6611;52.604;13.438;2023-03-31T22:10:09;10.42;90.57
13091;DHT22;6611;52.604;13.438;2023-03-31T22:15:11;10.41;90.72
13091;DHT22;6611;52.604;13.438;2023-03-31T22:20:12;10.44;90.56
13091;DHT22;6611;52.604;13.438;2023-03-31T22:25:15;10.34;90.82
13091;DHT22;6611;52.604;13.438;2023-03-31T22:30:19;10.32;91.06
13091;DHT22;6611;52.604;13.438;2023-03-31T22:35:21;10.31;90.86
13091;DHT22;6611;52.604;13.438;2023-03-31T22:40:24;10.31;90.76
13091;DHT22;6611;52.604;13.438;2023-03-31T22:45:28;10.28;90.72
13091;DHT22;6611;52.604;13.438;2023-03-31T22:50:30;10.30;90.58
13091;DHT22;6611;52.604;13.438;2023-03-31T22:55:33;10.30;90.72
13091;DHT22;6611;52.604;13.438;2023-03-31T23:00:35;10.20;91.09
13091;DHT22;6611;52.604;13.438;2023-03-31T23:05:36;10.25;91.03
13091;DHT22;6611;52.604;13.438;2023-03-31T23:10:39;10.28;90.80
13091;DHT22;6611;52.604;13.438;2023-03-31T23:15:41;10.31;90.58
13091;DHT22;6611;52.604;13.438;2023-03-31T23:20:43;10.31;90.49
13091;DHT22;6611;52.604;13.438;2023-03-31T23:25:46;10.20;90.84
13091;DHT22;6611;52.604;13.438;2023-03-31T23:30:51;10.24;90.86
13091;DHT22;6611;52.604;13.438;2023-03-31T23:35:57;10.11;91.13
13091;DHT22;6611;52.604;13.438;2023-03-31T23:41:01;10.10;91.28
13091;DHT22;6611;52.604;13.438;2023-03-31T23:46:03;10.14;91.24
13091;DHT22;6611;52.604;13.438;2023-03-31T23:51:07;10.06;91.52
13091;DHT22;6611;52.604;13.438;2023-03-31T23:56:11;10.13;91.32
